Time;durP1;ratioP1;P1;durP2;ratioP2;P2;SDS_P1;SDS_P2;PMS_P1;PMS_P2;Temp;Humidity;BMP_temperature;BMP_pressure;BME280_temperature;BME280_humidity;BME280_pressure;Samples;Min_cycle;Max_cycle;Signal;HPM_P1;HPM_P2
2022/05/10 00:00:37;;;;;;;4.15;2.20;;;;;;;;;;5009456;28;20032;-87
2022/05/10 00:03:05;;;;;;;2.40;1.85;;;;;;;;;;5023794;28;20469;-89
2022/05/10 00:05:36;;;;;;;4.13;1.63;;;;;;;;;;5006626;28;20447;-87
2022/05/10 00:08:04;;;;;;;2.60;1.50;;;;;;;;;;5005718;28;20022;-88
2022/05/10 00:10:30;;;;;;;2.47;1.50;;;;;;;;;;5008842;28;20033;-87
2022/05/10 00:12:55;;;;;;;2.13;1.60;;;;;;;;;;5004620;28;20367;-86
2022/05/10 00:15:21;;;;;;;3.67;1.73;;;;;;;;;;5025112;28;20030;-87
2022/05/10 00:17:48;;;;;;;3.10;1.65;;;;;;;;;;5008290;28;20080;-86
2022/05/10 00:20:18;;;;;;;1.95;1.42;;;;;;;;;;5027895;28;20080;-87
2022/05/10 00:22:44;;;;;;;4.68;1.60;;;;;;;;;;5011696;28;20036;-87
2022/05/10 00:25:12;;;;;;;2.38;1.38;;;;;;;;;;5009302;28;20108;-87
2022/05/10 00:27:37;;;;;;;6.35;1.98;;;;;;;;;;5008538;28;20042;-86
2022/05/10 00:30:04;;;;;;;1.92;1.40;;;;;;;;;;5013376;28;20029;-86
2022/05/10 00:32:34;;;;;;;3.13;1.77;;;;;;;;;;5007778;28;20034;-88
2022/05/10 00:34:59;;;;;;;3.20;1.52;;;;;;;;;;5031755;28;20118;-87
2022/05/10 00:37:25;;;;;;;2.50;1.52;;;;;;;;;;5031247;28;20061;-87
2022/05/10 00:39:51;;;;;;;3.08;1.80;;;;;;;;;;5010767;28;20424;-86
2022/05/10 00:42:43;;;;;;;3.22;1.80;;;;;;;;;;5032422;28;20029;-87
2022/05/10 00:45:15;;;;;;;5.35;2.10;;;;;;;;;;5023177;28;20034;-88
2022/05/10 00:48:19;;;;;;;1.98;1.63;;;;;;;;;;5003394;28;20022;-86
2022/05/10 00:50:56;;;;;;;2.78;1.92;;;;;;;;;;4972812;28;20034;-89
2022/05/10 00:53:28;;;;;;;3.50;1.52;;;;;;;;;;5025690;28;20088;-87
2022/05/10 00:56:04;;;;;;;4.03;2.33;;;;;;;;;;5013330;28;20025;-89
2022/05/10 00:58:55;;;;;;;3.08;2.20;;;;;;;;;;5014150;28;20037;-87
2022/05/10 01:01:28;;;;;;;4.25;1.88;;;;;;;;;;5013971;28;20588;-87
2022/05/10 01:04:36;;;;;;;4.43;2.05;;;;;;;;;;5010696;28;20038;-88
2022/05/10 01:07:22;;;;;;;3.65;2.00;;;;;;;;;;5029529;28;20060;-86
2022/05/10 01:10:19;;;;;;;2.67;1.67;;;;;;;;;;5030002;28;20025;-87
2022/05/10 01:12:50;;;;;;;2.10;1.58;;;;;;;;;;4991911;28;20066;-88
2022/05/10 01:15:20;;;;;;;4.97;2.20;;;;;;;;;;5014126;28;20032;-87
2022/05/10 01:17:46;;;;;;;3.05;1.80;;;;;;;;;;5008002;28;20436;-87
2022/05/10 01:20:17;;;;;;;3.80;1.80;;;;;;;;;;5027616;28;20307;-87
2022/05/10 01:23:12;;;;;;;4.43;1.73;;;;;;;;;;5006711;28;20080;-86
2022/05/10 01:26:14;;;;;;;5.18;1.83;;;;;;;;;;4996021;28;20046;-88
2022/05/10 01:28:47;;;;;;;2.85;1.90;;;;;;;;;;4992904;28;20041;-88
2022/05/10 01:31:22;;;;;;;2.80;1.60;;;;;;;;;;5007356;28;20544;-88
2022/05/10 01:33:52;;;;;;;2.85;1.70;;;;;;;;;;5023957;28;20022;-85
2022/05/10 01:36:58;;;;;;;3.17;1.80;;;;;;;;;;5028273;28;20030;-86
2022/05/10 01:39:35;;;;;;;2.63;1.80;;;;;;;;;;5009421;28;20084;-85
2022/05/10 01:42:23;;;;;;;3.40;1.77;;;;;;;;;;5020836;28;20470;-87
2022/05/10 01:44:59;;;;;;;3.30;1.55;;;;;;;;;;5027682;28;20089;-86
2022/05/10 01:47:31;;;;;;;2.78;1.65;;;;;;;;;;5023377;28;20022;-87
2022/05/10 01:50:25;;;;;;;2.80;2.00;;;;;;;;;;5003510;28;20029;-87
2022/05/10 01:53:01;;;;;;;2.55;1.67;;;;;;;;;;5007222;28;20029;-87
2022/05/10 01:55:30;;;;;;;2.50;1.83;;;;;;;;;;5027778;28;20478;-87
2022/05/10 01:58:01;;;;;;;6.18;1.98;;;;;;;;;;5006454;28;20025;-88
2022/05/10 02:00:28;;;;;;;2.13;1.60;;;;;;;;;;5021221;28;20442;-87
2022/05/10 02:03:03;;;;;;;3.47;1.77;;;;;;;;;;5021862;28;20032;-87
2022/05/10 02:05:39;;;;;;;4.30;1.35;;;;;;;;;;5027423;28;20048;-87
2022/05/10 02:08:15;;;;;;;4.07;1.92;;;;;;;;;;5030661;28;20022;-87
2022/05/10 02:10:46;;;;;;;5.70;1.92;;;;;;;;;;5006436;28;20493;-88
2022/05/10 02:13:23;;;;;;;4.30;1.98;;;;;;;;;;5003955;28;20037;-89
2022/05/10 02:15:51;;;;;;;3.28;2.17;;;;;;;;;;5027646;28;20025;-88
2022/05/10 02:18:24;;;;;;;3.72;2.47;;;;;;;;;;5006172;28;20053;-87
2022/05/10 02:21:12;;;;;;;4.78;2.00;;;;;;;;;;5007895;28;20029;-88
2022/05/10 02:23:45;;;;;;;3.05;1.75;;;;;;;;;;5006640;28;20033;-88
2022/05/10 02:26:16;;;;;;;4.13;1.80;;;;;;;;;;5003833;28;20030;-89
2022/05/10 02:28:45;;;;;;;3.03;1.70;;;;;;;;;;5023869;28;20021;-86
2022/05/10 02:31:25;;;;;;;4.15;1.88;;;;;;;;;;5007067;28;20029;-87
2022/05/10 02:33:51;;;;;;;2.30;1.45;;;;;;;;;;5000618;28;20121;-88
2022/05/10 02:36:17;;;;;;;4.00;1.85;;;;;;;;;;5006653;28;20573;-88
2022/05/10 02:38:44;;;;;;;2.75;1.50;;;;;;;;;;4999198;28;20382;-87
2022/05/10 02:41:14;;;;;;;1.83;1.40;;;;;;;;;;5000196;28;20032;-86
2022/05/10 02:43:48;;;;;;;2.95;1.75;;;;;;;;;;5017931;28;20437;-86
2022/05/10 02:46:14;;;;;;;4.65;1.70;;;;;;;;;;5007693;28;20037;-87
2022/05/10 02:48:39;;;;;;;2.05;1.40;;;;;;;;;;5020500;28;20033;-86
2022/05/10 02:51:05;;;;;;;2.80;1.70;;;;;;;;;;5004997;28;20033;-88
2022/05/10 02:53:31;;;;;;;3.47;1.50;;;;;;;;;;5005802;28;20080;-86
2022/05/10 02:55:58;;;;;;;3.42;1.90;;;;;;;;;;5008750;28;20033;-87
2022/05/10 02:58:47;;;;;;;2.42;1.63;;;;;;;;;;5025461;28;20481;-86
2022/05/10 03:01:53;;;;;;;2.72;1.60;;;;;;;;;;5006490;28;20036;-87
2022/05/10 03:04:20;;;;;;;3.25;1.50;;;;;;;;;;4967420;28;20449;-87
2022/05/10 03:06:48;;;;;;;2.30;1.75;;;;;;;;;;5009070;28;20484;-86
2022/05/10 03:09:14;;;;;;;3.63;1.75;;;;;;;;;;5011528;28;20495;-88
2022/05/10 03:11:40;;;;;;;2.45;1.50;;;;;;;;;;5006861;28;20026;-86
2022/05/10 03:14:19;;;;;;;3.58;1.80;;;;;;;;;;5026750;28;20492;-87
2022/05/10 03:16:44;;;;;;;2.05;1.45;;;;;;;;;;5005253;28;20021;-87
2022/05/10 03:19:10;;;;;;;3.28;1.73;;;;;;;;;;5023734;28;20374;-87
2022/05/10 03:21:37;;;;;;;4.53;1.60;;;;;;;;;;5004523;28;20036;-87
2022/05/10 03:24:04;;;;;;;2.92;1.80;;;;;;;;;;5001773;28;20040;-86
2022/05/10 03:26:30;;;;;;;3.92;1.70;;;;;;;;;;5007084;28;20032;-86
2022/05/10 03:28:56;;;;;;;2.88;1.70;;;;;;;;;;5016829;28;20036;-87
2022/05/10 03:31:23;;;;;;;3.25;1.98;;;;;;;;;;5002885;28;20029;-87
2022/05/10 03:34:53;;;;;;;3.15;1.85;;;;;;;;;;5007369;28;20109;-87
2022/05/10 03:36:34;;;;;;;4.38;1.83;;;;;;;;;;5018552;28;20038;-86
2022/05/10 03:39:00;;;;;;;2.70;1.70;;;;;;;;;;5000138;28;20059;-88
2022/05/10 03:41:26;;;;;;;3.50;1.70;;;;;;;;;;5025361;28;20032;-86
2022/05/10 03:43:51;;;;;;;2.50;2.00;;;;;;;;;;5023394;28;20103;-88
2022/05/10 03:46:17;;;;;;;4.35;1.90;;;;;;;;;;5007309;28;20025;-88
2022/05/10 03:48:44;;;;;;;4.75;1.30;;;;;;;;;;5006821;28;20033;-86
2022/05/10 03:51:09;;;;;;;2.72;1.60;;;;;;;;;;5025072;28;20445;-85
2022/05/10 03:53:34;;;;;;;3.40;1.90;;;;;;;;;;5020391;28;20063;-85
2022/05/10 03:56:00;;;;;;;3.13;2.15;;;;;;;;;;5022743;28;20088;-85
2022/05/10 03:58:25;;;;;;;3.35;2.10;;;;;;;;;;5003806;28;20625;-85
2022/05/10 04:00:51;;;;;;;3.25;2.45;;;;;;;;;;5026009;28;20064;-85
2022/05/10 04:03:16;;;;;;;3.83;2.20;;;;;;;;;;5023377;28;20039;-85
2022/05/10 04:05:43;;;;;;;3.13;2.15;;;;;;;;;;5025332;28;20025;-84
2022/05/10 04:08:10;;;;;;;3.55;2.15;;;;;;;;;;5009835;28;20045;-86
2022/05/10 04:10:42;;;;;;;4.07;2.58;;;;;;;;;;5029522;28;20384;-88
2022/05/10 04:13:10;;;;;;;4.78;2.55;;;;;;;;;;5009573;28;20029;-87
2022/05/10 04:15:36;;;;;;;3.38;2.10;;;;;;;;;;5009911;28;20465;-87
2022/05/10 04:18:02;;;;;;;5.55;3.03;;;;;;;;;;5029214;28;20033;-87
2022/05/10 04:20:27;;;;;;;9.23;2.88;;;;;;;;;;5031012;28;20084;-86
2022/05/10 04:22:53;;;;;;;4.25;2.75;;;;;;;;;;5025162;28;20104;-89
2022/05/10 04:25:23;;;;;;;4.45;2.95;;;;;;;;;;5007563;28;20121;-86
2022/05/10 04:27:50;;;;;;;6.50;2.67;;;;;;;;;;5019681;28;20049;-86
2022/05/10 04:30:17;;;;;;;4.68;2.75;;;;;;;;;;5024985;28;20029;-88
2022/05/10 04:32:44;;;;;;;5.05;2.92;;;;;;;;;;5006881;28;20751;-89
2022/05/10 04:35:12;;;;;;;4.55;3.28;;;;;;;;;;5008380;28;20079;-87
2022/05/10 04:37:38;;;;;;;6.43;3.05;;;;;;;;;;5008115;28;20465;-87
2022/05/10 04:42:51;;;;;;;6.35;3.35;;;;;;;;;;5027053;28;20056;-87
2022/05/10 04:45:17;;;;;;;5.05;3.28;;;;;;;;;;5025056;28;20025;-86
2022/05/10 04:47:42;;;;;;;4.53;3.17;;;;;;;;;;5004523;28;20025;-88
2022/05/10 04:50:09;;;;;;;10.48;6.43;;;;;;;;;;5008909;28;20032;-87
2022/05/10 04:52:35;;;;;;;7.47;4.43;;;;;;;;;;5004095;28;20478;-87
2022/05/10 04:55:01;;;;;;;6.68;3.30;;;;;;;;;;5011270;28;20025;-88
2022/05/10 04:57:26;;;;;;;5.15;3.20;;;;;;;;;;5003185;28;20068;-86
2022/05/10 04:59:52;;;;;;;7.50;3.13;;;;;;;;;;5007367;28;20127;-88
2022/05/10 05:02:17;;;;;;;10.02;3.70;;;;;;;;;;5022978;28;20371;-86
2022/05/10 05:04:43;;;;;;;5.20;3.13;;;;;;;;;;5026791;28;20037;-89
2022/05/10 05:07:09;;;;;;;6.18;3.13;;;;;;;;;;5008757;28;20075;-88
2022/05/10 05:09:34;;;;;;;6.88;2.92;;;;;;;;;;5025890;28;20029;-86
2022/05/10 05:12:00;;;;;;;9.35;2.83;;;;;;;;;;5011779;28;20111;-87
2022/05/10 05:14:25;;;;;;;5.70;2.97;;;;;;;;;;5012893;28;20473;-87
2022/05/10 05:16:54;;;;;;;7.82;3.15;;;;;;;;;;5005105;28;20064;-87
2022/05/10 05:19:20;;;;;;;6.60;3.45;;;;;;;;;;5004730;28;20022;-88
2022/05/10 05:21:45;;;;;;;6.45;3.92;;;;;;;;;;5006733;28;20106;-89
2022/05/10 05:24:11;;;;;;;8.02;4.38;;;;;;;;;;5011223;28;20121;-90
2022/05/10 05:26:37;;;;;;;7.63;4.40;;;;;;;;;;5006330;28;20649;-89
2022/05/10 05:29:03;;;;;;;9.60;4.72;;;;;;;;;;5025268;28;20029;-91
2022/05/10 05:31:29;;;;;;;12.98;5.35;;;;;;;;;;5027223;28;20029;-90
2022/05/10 05:33:55;;;;;;;11.20;3.65;;;;;;;;;;5025257;28;20537;-88
2022/05/10 05:36:22;;;;;;;8.32;4.40;;;;;;;;;;5007776;28;20021;-88
2022/05/10 05:38:50;;;;;;;8.70;4.95;;;;;;;;;;5010722;28;20063;-87
2022/05/10 05:41:17;;;;;;;9.30;4.35;;;;;;;;;;5004211;28;20036;-92
2022/05/10 05:43:42;;;;;;;7.60;4.22;;;;;;;;;;5015615;28;20053;-88
2022/05/10 05:46:08;;;;;;;7.95;4.93;;;;;;;;;;5011387;28;20024;-90
2022/05/10 05:48:33;;;;;;;8.80;4.70;;;;;;;;;;5015934;28;20486;-88
2022/05/10 05:50:59;;;;;;;7.88;4.78;;;;;;;;;;5033076;28;20462;-87
2022/05/10 05:53:26;;;;;;;9.35;5.28;;;;;;;;;;5009846;28;20025;-86
2022/05/10 05:55:53;;;;;;;9.00;4.50;;;;;;;;;;5015745;28;20389;-90
2022/05/10 05:58:18;;;;;;;6.43;4.80;;;;;;;;;;5015885;28;20037;-91
2022/05/10 06:00:44;;;;;;;9.07;4.75;;;;;;;;;;5005527;28;20397;-87
2022/05/10 06:03:10;;;;;;;10.38;4.72;;;;;;;;;;5025152;28;20516;-87
2022/05/10 06:05:36;;;;;;;15.27;4.63;;;;;;;;;;5009805;28;20032;-84
2022/05/10 06:08:03;;;;;;;12.82;4.90;;;;;;;;;;5024988;28;20076;-85
2022/05/10 06:10:29;;;;;;;8.07;4.40;;;;;;;;;;5025787;28;20475;-86
2022/05/10 06:12:54;;;;;;;12.68;4.55;;;;;;;;;;5010071;28;20025;-90
2022/05/10 06:15:20;;;;;;;8.48;4.03;;;;;;;;;;5026441;28;20104;-86
2022/05/10 06:17:47;;;;;;;8.63;4.82;;;;;;;;;;5005626;28;20370;-85
2022/05/10 06:20:17;;;;;;;6.75;4.30;;;;;;;;;;5022114;28;20038;-85
2022/05/10 06:22:44;;;;;;;9.48;4.78;;;;;;;;;;5028375;28;20080;-85
2022/05/10 06:25:12;;;;;;;8.40;5.03;;;;;;;;;;5027455;28;20086;-85
2022/05/10 06:27:37;;;;;;;6.72;4.20;;;;;;;;;;5024500;28;20025;-83
2022/05/10 06:30:03;;;;;;;10.38;4.88;;;;;;;;;;5026261;28;20074;-83
2022/05/10 06:32:31;;;;;;;9.80;4.03;;;;;;;;;;5026064;28;20389;-83
2022/05/10 06:34:59;;;;;;;10.70;4.47;;;;;;;;;;5003406;28;20029;-84
2022/05/10 06:40:15;;;;;;;10.80;4.60;;;;;;;;;;5026630;28;20071;-84
2022/05/10 06:42:41;;;;;;;9.88;4.32;;;;;;;;;;5003213;28;20032;-83
2022/05/10 06:45:10;;;;;;;9.75;4.80;;;;;;;;;;5025727;28;20037;-84
2022/05/10 06:47:41;;;;;;;11.80;4.75;;;;;;;;;;5026705;28;20032;-84
2022/05/10 06:50:10;;;;;;;24.75;13.82;;;;;;;;;;5026487;28;20034;-84
2022/05/10 06:52:35;;;;;;;13.05;5.40;;;;;;;;;;5020484;28;20468;-86
2022/05/10 06:55:01;;;;;;;12.38;4.35;;;;;;;;;;5009036;28;20030;-84
2022/05/10 06:57:26;;;;;;;12.93;4.32;;;;;;;;;;5021288;28;20359;-85
2022/05/10 06:59:54;;;;;;;9.98;4.28;;;;;;;;;;5010110;28;20030;-85
2022/05/10 07:02:20;;;;;;;9.10;4.55;;;;;;;;;;5007721;28;20025;-83
2022/05/10 07:04:48;;;;;;;6.97;4.07;;;;;;;;;;5029669;28;20025;-85
2022/05/10 07:07:13;;;;;;;9.70;4.35;;;;;;;;;;5009488;28;20379;-87
2022/05/10 07:09:38;;;;;;;10.90;4.43;;;;;;;;;;5005113;28;20030;-85
2022/05/10 07:12:04;;;;;;;9.63;4.40;;;;;;;;;;5007726;28;20026;-83
2022/05/10 07:14:30;;;;;;;11.38;4.15;;;;;;;;;;5005424;28;20034;-85
2022/05/10 07:16:56;;;;;;;9.20;4.05;;;;;;;;;;5003660;28;20080;-84
2022/05/10 07:19:22;;;;;;;6.57;3.50;;;;;;;;;;5021538;28;20109;-84
2022/05/10 07:21:50;;;;;;;8.88;4.35;;;;;;;;;;5023238;28;20448;-84
2022/05/10 07:24:19;;;;;;;12.48;3.97;;;;;;;;;;5008192;28;20390;-83
2022/05/10 07:26:45;;;;;;;8.23;2.78;;;;;;;;;;5022434;28;20029;-83
2022/05/10 07:29:12;;;;;;;10.18;3.55;;;;;;;;;;5026789;28;20549;-84
2022/05/10 07:31:38;;;;;;;6.88;3.83;;;;;;;;;;5024893;28;20522;-84
2022/05/10 07:34:04;;;;;;;7.53;3.50;;;;;;;;;;5021891;28;20119;-80
2022/05/10 07:36:33;;;;;;;6.93;2.95;;;;;;;;;;5026552;28;20088;-85
2022/05/10 07:39:03;;;;;;;6.00;2.92;;;;;;;;;;5021426;28;20025;-85
2022/05/10 07:41:29;;;;;;;2.90;1.83;;;;;;;;;;5007515;28;20032;-86
2022/05/10 07:43:56;;;;;;;2.78;2.17;;;;;;;;;;5019919;28;20045;-91
2022/05/10 07:46:22;;;;;;;5.45;2.20;;;;;;;;;;5009925;28;20021;-88
2022/05/10 07:48:47;;;;;;;11.80;2.47;;;;;;;;;;5011746;28;20071;-88
2022/05/10 07:51:13;;;;;;;7.90;1.60;;;;;;;;;;5024502;28;20536;-87
2022/05/10 07:53:41;;;;;;;8.15;2.60;;;;;;;;;;5004342;28;20109;-88
2022/05/10 07:56:07;;;;;;;9.50;1.80;;;;;;;;;;5023072;28;20050;-87
2022/05/10 07:58:33;;;;;;;5.80;2.03;;;;;;;;;;5008755;28;20036;-87
2022/05/10 08:00:59;;;;;;;3.53;1.55;;;;;;;;;;5024057;28;20034;-86
2022/05/10 08:03:25;;;;;;;6.22;1.67;;;;;;;;;;5026995;28;20018;-86
2022/05/10 08:05:56;;;;;;;3.58;1.50;;;;;;;;;;5023308;28;20053;-87
2022/05/10 08:08:23;;;;;;;4.18;2.10;;;;;;;;;;5009016;28;20072;-86
2022/05/10 08:10:50;;;;;;;3.42;1.85;;;;;;;;;;5008204;28;20034;-88
2022/05/10 08:13:19;;;;;;;3.55;1.80;;;;;;;;;;5005695;28;20429;-88
2022/05/10 08:15:45;;;;;;;6.10;1.77;;;;;;;;;;5021907;28;20033;-90
2022/05/10 08:18:11;;;;;;;2.72;1.83;;;;;;;;;;5026829;28;20022;-89
2022/05/10 08:20:38;;;;;;;3.40;1.80;;;;;;;;;;5010953;28;20489;-88
2022/05/10 08:23:06;;;;;;;6.22;1.98;;;;;;;;;;5020892;28;20025;-90
2022/05/10 08:25:32;;;;;;;5.63;2.70;;;;;;;;;;5023400;28;20110;-86
2022/05/10 08:27:57;;;;;;;4.50;2.42;;;;;;;;;;5019899;28;20592;-88
2022/05/10 08:30:23;;;;;;;6.28;1.88;;;;;;;;;;5025289;28;20108;-88
2022/05/10 08:32:48;;;;;;;6.05;1.85;;;;;;;;;;5007245;28;20493;-88
2022/05/10 08:35:14;;;;;;;5.10;1.90;;;;;;;;;;5030669;28;20420;-87
2022/05/10 08:37:39;;;;;;;3.88;2.28;;;;;;;;;;5012048;28;20458;-88
2022/05/10 08:40:08;;;;;;;4.40;1.98;;;;;;;;;;5008821;28;20576;-89
2022/05/10 08:42:41;;;;;;;4.43;2.15;;;;;;;;;;5009311;28;20048;-87
2022/05/10 08:45:09;;;;;;;4.20;2.28;;;;;;;;;;5009542;28;20830;-87
2022/05/10 08:47:36;;;;;;;9.50;2.33;;;;;;;;;;5009563;28;20474;-89
2022/05/10 08:50:06;;;;;;;5.05;2.30;;;;;;;;;;5011788;28;20026;-89
2022/05/10 08:52:34;;;;;;;3.25;1.95;;;;;;;;;;5012180;28;20095;-86
2022/05/10 08:55:01;;;;;;;4.00;2.55;;;;;;;;;;5026154;28;20072;-90
2022/05/10 08:57:46;;;;;;;5.85;2.25;;;;;;;;;;5030119;28;20029;-87
2022/05/10 09:00:33;;;;;;;4.80;2.30;;;;;;;;;;5015027;28;20492;-86
2022/05/10 09:03:01;;;;;;;3.65;2.22;;;;;;;;;;5027072;28;20112;-87
2022/05/10 09:05:43;;;;;;;4.30;1.85;;;;;;;;;;5007378;28;20025;-88
2022/05/10 09:08:36;;;;;;;4.13;1.92;;;;;;;;;;5023858;28;20017;-88
2022/05/10 09:11:05;;;;;;;3.22;2.10;;;;;;;;;;5027242;28;20036;-88
2022/05/10 09:13:31;;;;;;;2.88;2.00;;;;;;;;;;5014230;28;20374;-88
2022/05/10 09:16:04;;;;;;;4.80;2.47;;;;;;;;;;5009136;28;20033;-87
2022/05/10 09:18:51;;;;;;;7.72;2.38;;;;;;;;;;5006956;28;20390;-88
2022/05/10 09:21:26;;;;;;;8.73;2.58;;;;;;;;;;5027357;28;20021;-87
2022/05/10 09:24:23;;;;;;;4.38;2.33;;;;;;;;;;5025716;28;20249;-88
2022/05/10 09:26:53;;;;;;;7.40;2.13;;;;;;;;;;5027141;28;20053;-85
2022/05/10 09:29:33;;;;;;;3.92;2.08;;;;;;;;;;5022143;28;20025;-85
2022/05/10 09:34:59;;;;;;;3.03;2.30;;;;;;;;;;5026396;28;20068;-89
2022/05/10 09:37:27;;;;;;;5.32;2.10;;;;;;;;;;5026888;28;20125;-86
2022/05/10 09:39:55;;;;;;;3.05;2.00;;;;;;;;;;5026629;28;20108;-87
2022/05/10 09:42:26;;;;;;;3.10;2.13;;;;;;;;;;5007528;28;20026;-86
2022/05/10 09:44:58;;;;;;;3.70;2.13;;;;;;;;;;5007835;28;20371;-88
2022/05/10 09:47:24;;;;;;;5.75;2.60;;;;;;;;;;5011154;28;20028;-89
2022/05/10 09:49:49;;;;;;;4.18;2.25;;;;;;;;;;5022464;28;20119;-86
2022/05/10 09:52:25;;;;;;;3.63;2.08;;;;;;;;;;5030207;28;20052;-86
2022/05/10 09:54:53;;;;;;;2.92;1.90;;;;;;;;;;5011475;28;20041;-87
2022/05/10 09:57:32;;;;;;;4.25;2.10;;;;;;;;;;5024823;28;20458;-85
2022/05/10 09:59:58;;;;;;;5.53;2.38;;;;;;;;;;5009922;28;20048;-87
2022/05/10 10:02:37;;;;;;;3.85;1.95;;;;;;;;;;5010638;28;20520;-88
2022/05/10 10:05:31;;;;;;;5.28;1.98;;;;;;;;;;5011581;28;20026;-88
2022/05/10 10:07:58;;;;;;;3.83;2.33;;;;;;;;;;5010695;28;20054;-87
2022/05/10 10:10:29;;;;;;;4.72;2.47;;;;;;;;;;5005417;28;20040;-87
2022/05/10 10:12:55;;;;;;;4.32;1.83;;;;;;;;;;5023505;28;20034;-89
2022/05/10 10:15:41;;;;;;;2.78;2.05;;;;;;;;;;5007890;28;20021;-87
2022/05/10 10:18:09;;;;;;;4.97;2.17;;;;;;;;;;5006195;28;20034;-85
2022/05/10 10:20:50;;;;;;;4.28;2.30;;;;;;;;;;5029440;28;20029;-87
2022/05/10 10:23:30;;;;;;;3.30;2.40;;;;;;;;;;5008614;28;20491;-86
2022/05/10 10:26:01;;;;;;;3.80;2.20;;;;;;;;;;5027407;28;20133;-87
2022/05/10 10:28:42;;;;;;;5.13;2.80;;;;;;;;;;5008523;28;20036;-86
2022/05/10 10:31:33;;;;;;;3.10;2.17;;;;;;;;;;5030456;28;20282;-87
2022/05/10 10:34:26;;;;;;;2.20;1.80;;;;;;;;;;5000063;28;20475;-88
2022/05/10 10:37:10;;;;;;;5.53;2.30;;;;;;;;;;5026077;28;20057;-88
2022/05/10 10:40:10;;;;;;;2.78;2.10;;;;;;;;;;5012565;28;20026;-89
2022/05/10 10:42:57;;;;;;;2.90;2.05;;;;;;;;;;5004564;28;20485;-86
2022/05/10 10:45:59;;;;;;;4.90;1.95;;;;;;;;;;5028207;28;20037;-85
2022/05/10 10:48:48;;;;;;;4.47;2.30;;;;;;;;;;5030482;28;20028;-87
2022/05/10 10:51:15;;;;;;;6.10;1.80;;;;;;;;;;5001971;28;20490;-86
2022/05/10 10:53:43;;;;;;;5.25;2.13;;;;;;;;;;5025545;28;20044;-86
2022/05/10 10:56:30;;;;;;;3.38;1.80;;;;;;;;;;5027359;28;20032;-84
2022/05/10 10:59:17;;;;;;;6.22;2.03;;;;;;;;;;5008062;28;20053;-85
2022/05/10 11:01:56;;;;;;;2.70;1.90;;;;;;;;;;5006922;28;20032;-85
2022/05/10 11:04:57;;;;;;;3.22;1.75;;;;;;;;;;5014018;28;20470;-85
2022/05/10 11:07:48;;;;;;;3.33;1.90;;;;;;;;;;5027627;28;20485;-85
2022/05/10 11:10:37;;;;;;;4.03;2.13;;;;;;;;;;5010527;28;20025;-87
2022/05/10 11:13:18;;;;;;;3.08;1.90;;;;;;;;;;5012379;28;20029;-86
2022/05/10 11:15:43;;;;;;;4.22;1.73;;;;;;;;;;5006136;28;20025;-84
2022/05/10 11:18:35;;;;;;;6.13;1.95;;;;;;;;;;5032908;28;20079;-87
2022/05/10 11:21:39;;;;;;;3.63;1.70;;;;;;;;;;5024601;28;20498;-86
2022/05/10 11:24:05;;;;;;;6.50;1.95;;;;;;;;;;4996466;28;20086;-86
2022/05/10 11:26:46;;;;;;;3.80;1.83;;;;;;;;;;5026743;28;20588;-85
2022/05/10 11:29:23;;;;;;;3.45;1.77;;;;;;;;;;5029402;28;20112;-86
2022/05/10 11:31:53;;;;;;;1.83;1.48;;;;;;;;;;5005606;28;20029;-86
2022/05/10 11:34:46;;;;;;;4.45;1.60;;;;;;;;;;5004630;28;20030;-88
2022/05/10 11:37:20;;;;;;;3.00;1.63;;;;;;;;;;5010242;28;20813;-87
2022/05/10 11:40:06;;;;;;;1.88;1.52;;;;;;;;;;5012833;28;20028;-86
2022/05/10 11:43:02;;;;;;;3.88;1.60;;;;;;;;;;5023613;28;20025;-87
2022/05/10 11:45:55;;;;;;;2.33;1.60;;;;;;;;;;5028218;28;20033;-86
2022/05/10 11:49:00;;;;;;;2.88;1.33;;;;;;;;;;5023871;28;20025;-86
2022/05/10 11:51:46;;;;;;;3.17;1.60;;;;;;;;;;4999017;28;20071;-85
2022/05/10 11:54:47;;;;;;;2.10;1.42;;;;;;;;;;5003767;28;20401;-87
2022/05/10 11:57:16;;;;;;;3.00;1.60;;;;;;;;;;4978529;28;20095;-86
2022/05/10 11:59:44;;;;;;;4.35;1.40;;;;;;;;;;5005567;28;20029;-87
2022/05/10 12:02:45;;;;;;;6.78;1.70;;;;;;;;;;5026889;28;20539;-83
2022/05/10 12:05:12;;;;;;;3.50;1.35;;;;;;;;;;4968590;28;20030;-84
2022/05/10 12:07:45;;;;;;;3.47;1.42;;;;;;;;;;5000325;28;20503;-84
2022/05/10 12:10:42;;;;;;;3.00;1.73;;;;;;;;;;5005588;28;20445;-84
2022/05/10 12:22:09;;;;;;;2.63;1.98;;;;;;;;;;5024227;28;19919;-85
2022/05/10 12:24:44;;;;;;;3.25;1.73;;;;;;;;;;5005555;28;20041;-86
2022/05/10 12:27:10;;;;;;;2.17;1.65;;;;;;;;;;5023944;28;20117;-87
2022/05/10 12:29:50;;;;;;;3.55;1.77;;;;;;;;;;5021959;28;20100;-85
2022/05/10 12:32:34;;;;;;;;;;;;;;;;;;;;;
2022/05/10 12:35:06;;;;;;;2.45;1.60;;;;;;;;;;5023562;28;20376;-86
2022/05/10 12:37:32;;;;;;;4.97;1.92;;;;;;;;;;5007581;28;20046;-86
2022/05/10 12:40:09;;;;;;;3.70;1.50;;;;;;;;;;5005017;28;20065;-82
2022/05/10 12:42:53;;;;;;;2.67;1.50;;;;;;;;;;5006056;28;20030;-88
2022/05/10 12:45:40;;;;;;;2.67;1.80;;;;;;;;;;5024648;28;20030;-87
2022/05/10 12:48:21;;;;;;;4.05;1.40;;;;;;;;;;5003801;28;20032;-86
2022/05/10 12:51:13;;;;;;;4.47;1.70;;;;;;;;;;5006668;28;20036;-86
2022/05/10 12:54:01;;;;;;;1.63;1.40;;;;;;;;;;5006071;28;20021;-86
2022/05/10 12:56:51;;;;;;;1.83;1.48;;;;;;;;;;5025191;28;20032;-86
2022/05/10 12:59:26;;;;;;;2.22;1.33;;;;;;;;;;5016751;28;20057;-87
2022/05/10 13:01:52;;;;;;;2.60;1.30;;;;;;;;;;5025468;28;20425;-87
2022/05/10 13:04:20;;;;;;;3.40;1.63;;;;;;;;;;5009010;28;20061;-85
2022/05/10 13:07:09;;;;;;;5.60;1.50;;;;;;;;;;5017898;28;20084;-85
2022/05/10 13:09:41;;;;;;;1.58;1.40;;;;;;;;;;5023069;28;20057;-85
2022/05/10 13:12:08;;;;;;;7.25;1.63;;;;;;;;;;5015396;28;20076;-87
2022/05/10 13:14:43;;;;;;;2.08;1.50;;;;;;;;;;5025461;28;20040;-88
2022/05/10 13:17:12;;;;;;;3.30;1.20;;;;;;;;;;5004510;28;20030;-88
2022/05/10 13:19:43;;;;;;;7.60;1.90;;;;;;;;;;5001672;28;20033;-87
2022/05/10 13:22:14;;;;;;;5.10;2.05;;;;;;;;;;5024666;28;20026;-86
2022/05/10 13:24:43;;;;;;;3.22;1.80;;;;;;;;;;5027266;28;20542;-85
2022/05/10 13:27:20;;;;;;;;;;;;;;;;;;5024181;28;20413;-85
2022/05/10 13:29:48;;;;;;;15.00;2.70;;;;;;;;;;5024814;28;19921;-87
2022/05/10 13:32:34;;;;;;;6.18;1.90;;;;;;;;;;5005008;28;20038;-87
2022/05/10 13:35:06;;;;;;;3.70;1.73;;;;;;;;;;5022830;28;20025;-87
2022/05/10 13:37:35;;;;;;;3.10;1.63;;;;;;;;;;5008160;28;20520;-87
2022/05/10 13:40:08;;;;;;;3.65;1.70;;;;;;;;;;5020739;28;20474;-89
2022/05/10 13:42:42;;;;;;;3.20;1.70;;;;;;;;;;5025692;28;20033;-84
2022/05/10 13:45:11;;;;;;;5.40;1.80;;;;;;;;;;5026553;28;20485;-88
2022/05/10 13:47:37;;;;;;;2.33;1.80;;;;;;;;;;5014101;28;20021;-89
2022/05/10 13:50:03;;;;;;;4.40;2.03;;;;;;;;;;5029000;28;20469;-89
2022/05/10 13:52:34;;;;;;;3.05;1.75;;;;;;;;;;5020452;28;20034;-90
2022/05/10 13:55:04;;;;;;;2.58;1.70;;;;;;;;;;5022737;28;20495;-89
2022/05/10 13:57:32;;;;;;;2.70;1.55;;;;;;;;;;5032979;28;20363;-91
2022/05/10 14:00:19;;;;;;;4.38;1.70;;;;;;;;;;5000883;28;20022;-91
2022/05/10 14:02:45;;;;;;;2.80;1.70;;;;;;;;;;5026520;28;20045;-90
2022/05/10 14:05:19;;;;;;;2.92;1.35;;;;;;;;;;5011823;28;20073;-91
2022/05/10 14:07:48;;;;;;;6.40;2.13;;;;;;;;;;5012020;28;20504;-89
2022/05/10 14:10:18;;;;;;;3.40;2.15;;;;;;;;;;5007140;28;20076;-91
2022/05/10 14:12:52;;;;;;;3.47;2.28;;;;;;;;;;5024035;28;20017;-88
2022/05/10 14:15:27;;;;;;;5.97;2.45;;;;;;;;;;5023070;28;20477;-90
2022/05/10 14:18:44;;;;;;;5.68;2.13;;;;;;;;;;5025134;28;20062;-89
2022/05/10 14:21:22;;;;;;;5.35;1.85;;;;;;;;;;5008525;28;20034;-92
2022/05/10 14:23:49;;;;;;;3.92;1.92;;;;;;;;;;5005309;28;20026;-88
2022/05/10 14:26:36;;;;;;;3.92;2.97;;;;;;;;;;5005309;28;20025;-86
2022/05/10 14:29:20;;;;;;;3.08;1.80;;;;;;;;;;5021570;28;20025;-89
2022/05/10 14:32:02;;;;;;;3.30;1.92;;;;;;;;;;5002660;28;20029;-90
2022/05/10 14:34:58;;;;;;;2.08;1.73;;;;;;;;;;5006113;28;20199;-92
2022/05/10 14:37:28;;;;;;;3.30;1.70;;;;;;;;;;5029078;28;20444;-91
2022/05/10 14:39:58;;;;;;;3.15;2.05;;;;;;;;;;5028679;28;20028;-88
2022/05/10 14:42:30;;;;;;;6.35;2.03;;;;;;;;;;5009930;28;20029;-90
2022/05/10 14:45:14;;;;;;;2.03;1.60;;;;;;;;;;5022584;28;20061;-88
2022/05/10 14:47:40;;;;;;;3.10;1.88;;;;;;;;;;5005892;28;20075;-92
2022/05/10 14:50:26;;;;;;;3.72;1.60;;;;;;;;;;5022321;28;20469;-91
2022/05/10 14:53:15;;;;;;;2.00;1.80;;;;;;;;;;5021777;28;20240;-88
2022/05/10 14:55:43;;;;;;;2.17;1.60;;;;;;;;;;5008799;28;20033;-88
2022/05/10 14:58:11;;;;;;;5.50;1.80;;;;;;;;;;5010048;28;20056;-87
2022/05/10 15:00:40;;;;;;;1.60;1.45;;;;;;;;;;5024919;28;20029;-87
2022/05/10 15:03:18;;;;;;;4.40;2.05;;;;;;;;;;5008519;28;20437;-87
2022/05/10 15:05:45;;;;;;;4.45;1.80;;;;;;;;;;5026946;28;20022;-91
2022/05/10 15:08:11;;;;;;;1.73;1.60;;;;;;;;;;5026904;28;21808;-91
2022/05/10 15:10:41;;;;;;;2.78;1.58;;;;;;;;;;5021902;28;20108;-90
2022/05/10 15:13:14;;;;;;;;;;;;;;;;;;5023027;28;20100;-89
2022/05/10 15:15:57;;;;;;;3.90;1.58;;;;;;;;;;5006856;28;19964;-85
2022/05/10 15:21:18;;;;;;;4.85;3.40;;;;;;;;;;5023545;28;20396;-92
2022/05/10 15:23:44;;;;;;;2.58;1.80;;;;;;;;;;5007780;28;20087;-92
2022/05/10 15:26:18;;;;;;;2.67;1.73;;;;;;;;;;5018495;28;20442;-88
2022/05/10 15:28:45;;;;;;;4.15;2.00;;;;;;;;;;5003933;28;20543;-89
2022/05/10 15:31:11;;;;;;;3.15;2.05;;;;;;;;;;5006130;28;20393;-89
2022/05/10 15:33:36;;;;;;;4.90;2.35;;;;;;;;;;5025292;28;20087;-89
2022/05/10 15:36:02;;;;;;;3.88;2.40;;;;;;;;;;4999761;28;20029;-86